KBFM/BFM METAR and TAF weather

Enter ICAO airport designator
Station Type Date Time Source
KBFM METAR 2022/10/01 07:53 UTC NOAA

KBFM 010753Z AUTO 31005KT 10SM CLR 16/08 A2989 RMK AO2 SLP122 T01610083


Station Type Date Time Source
KBFM Decoded METAR 2022/10/01 07:53 UTC NOAA

MOBILE DOWNTOWN AIRPORT, AL, United States (KBFM) 30-38N 88-04W 20M
Oct 01, 2022 - 03:53 AM EDT / 2022.10.01 0753 UTC
Wind: from the NW (310 degrees) at 6 MPH (5 KT):0
Visibility: 10 mile(s):0
Sky conditions: clear
Temperature: 61.0 F (16.1 C)
Dew Point: 46.9 F (8.3 C)
Relative Humidity: 59%
Pressure (altimeter): 29.89 in. Hg (1012 hPa)
ob: KBFM 010753Z AUTO 31005KT 10SM CLR 16/08 A2989 RMK AO2 SLP122 T01610083
cycle: 8

Station Type Date Time Source
KBFM TAF 2022/10/01 06:22 UTC NOAA

TAF KBFM 010520Z 0106/0206 30006KT P6SM SKC

Example: see airport list